sensor_id;sensor_type;location;lat;lon;timestamp;pressure;altitude;pressure_sealevel;temperature;humidity
16120;BME280;12670;53.502;10.252;2023-07-29T00:02:21;100410.19;;;19.54;100.00
16120;BME280;12670;53.502;10.252;2023-07-29T00:05:24;100403.22;;;19.51;100.00
16120;BME280;12670;53.502;10.252;2023-07-29T00:08:27;100403.09;;;19.53;100.00
16120;BME280;12670;53.502;10.252;2023-07-29T00:11:31;100393.06;;;19.55;100.00
16120;BME280;12670;53.502;10.252;2023-07-29T00:14:35;100387.34;;;19.48;100.00
16120;BME280;12670;53.502;10.252;2023-07-29T00:17:38;100378.47;;;19.36;100.00
16120;BME280;12670;53.502;10.252;2023-07-29T00:20:40;100377.47;;;19.37;100.00
16120;BME280;12670;53.502;10.252;2023-07-29T00:23:44;100382.38;;;19.32;100.00
16120;BME280;12670;53.502;10.252;2023-07-29T00:26:48;100375.44;;;19.30;100.00
16120;BME280;12670;53.502;10.252;2023-07-29T00:29:51;100370.16;;;19.28;100.00
16120;BME280;12670;53.502;10.252;2023-07-29T00:32:54;100371.81;;;19.20;100.00
16120;BME280;12670;53.502;10.252;2023-07-29T00:35:57;100370.44;;;19.25;100.00
16120;BME280;12670;53.502;10.252;2023-07-29T00:39:03;100366.69;;;19.16;100.00
16120;BME280;12670;53.502;10.252;2023-07-29T00:42:08;100366.31;;;19.21;100.00
16120;BME280;12670;53.502;10.252;2023-07-29T00:45:11;100352.72;;;19.23;100.00
16120;BME280;12670;53.502;10.252;2023-07-29T00:48:14;100361.91;;;19.20;100.00
16120;BME280;12670;53.502;10.252;2023-07-29T00:51:17;100351.28;;;19.18;100.00
16120;BME280;12670;53.502;10.252;2023-07-29T00:54:20;100350.44;;;19.18;100.00
16120;BME280;12670;53.502;10.252;2023-07-29T00:57:25;100342.63;;;19.15;100.00
16120;BME280;12670;53.502;10.252;2023-07-29T01:00:28;100342.88;;;19.12;100.00
16120;BME280;12670;53.502;10.252;2023-07-29T01:03:30;100341.16;;;19.11;100.00
16120;BME280;12670;53.502;10.252;2023-07-29T01:06:38;100331.84;;;19.15;100.00
16120;BME280;12670;53.502;10.252;2023-07-29T01:09:52;100334.34;;;19.07;100.00
16120;BME280;12670;53.502;10.252;2023-07-29T01:13:05;100335.53;;;19.14;100.00
16120;BME280;12670;53.502;10.252;2023-07-29T01:16:15;100321.53;;;18.99;100.00
16120;BME280;12670;53.502;10.252;2023-07-29T01:19:42;100310.78;;;18.99;100.00
16120;BME280;12670;53.502;10.252;2023-07-29T01:22:46;100312.09;;;19.05;100.00
16120;BME280;12670;53.502;10.252;2023-07-29T01:25:50;100315.63;;;19.05;100.00
16120;BME280;12670;53.502;10.252;2023-07-29T01:28:53;100311.72;;;19.09;100.00
16120;BME280;12670;53.502;10.252;2023-07-29T01:31:59;100309.41;;;19.05;100.00
16120;BME280;12670;53.502;10.252;2023-07-29T01:35:10;100310.00;;;19.08;100.00
16120;BME280;12670;53.502;10.252;2023-07-29T01:38:19;100308.56;;;19.04;100.00
16120;BME280;12670;53.502;10.252;2023-07-29T01:41:24;100303.44;;;19.01;100.00
16120;BME280;12670;53.502;10.252;2023-07-29T01:44:27;100309.03;;;19.09;100.00
16120;BME280;12670;53.502;10.252;2023-07-29T01:47:30;100310.63;;;19.12;100.00
16120;BME280;12670;53.502;10.252;2023-07-29T01:50:33;100313.50;;;19.20;100.00
16120;BME280;12670;53.502;10.252;2023-07-29T01:53:36;100313.50;;;19.20;100.00
16120;BME280;12670;53.502;10.252;2023-07-29T01:56:40;100307.41;;;19.18;100.00
16120;BME280;12670;53.502;10.252;2023-07-29T01:59:42;100307.59;;;19.26;100.00
16120;BME280;12670;53.502;10.252;2023-07-29T02:02:45;100317.75;;;19.23;100.00
16120;BME280;12670;53.502;10.252;2023-07-29T02:05:48;100310.03;;;19.29;100.00
16120;BME280;12670;53.502;10.252;2023-07-29T02:08:51;100331.16;;;19.55;100.00
16120;BME280;12670;53.502;10.252;2023-07-29T02:11:55;100341.75;;;19.47;100.00
16120;BME280;12670;53.502;10.252;2023-07-29T02:14:57;100332.28;;;19.31;100.00
16120;BME280;12670;53.502;10.252;2023-07-29T02:18:00;100330.50;;;19.21;100.00
16120;BME280;12670;53.502;10.252;2023-07-29T02:21:03;100337.00;;;19.18;100.00
16120;BME280;12670;53.502;10.252;2023-07-29T02:24:06;100335.16;;;19.39;100.00
16120;BME280;12670;53.502;10.252;2023-07-29T02:27:10;100333.84;;;19.13;100.00
16120;BME280;12670;53.502;10.252;2023-07-29T02:30:12;100335.25;;;19.17;100.00
16120;BME280;12670;53.502;10.252;2023-07-29T02:33:15;100336.72;;;19.21;100.00
16120;BME280;12670;53.502;10.252;2023-07-29T02:36:18;100337.94;;;19.17;100.00
16120;BME280;12670;53.502;10.252;2023-07-29T02:39:21;100333.69;;;19.14;100.00
16120;BME280;12670;53.502;10.252;2023-07-29T02:42:26;100332.19;;;19.22;100.00
16120;BME280;12670;53.502;10.252;2023-07-29T02:45:28;100331.34;;;19.21;100.00
16120;BME280;12670;53.502;10.252;2023-07-29T02:48:31;100331.47;;;19.20;100.00
16120;BME280;12670;53.502;10.252;2023-07-29T02:51:34;100335.72;;;19.22;100.00
16120;BME280;12670;53.502;10.252;2023-07-29T02:54:37;100328.06;;;19.17;100.00
16120;BME280;12670;53.502;10.252;2023-07-29T02:57:41;100322.56;;;19.19;100.00
16120;BME280;12670;53.502;10.252;2023-07-29T03:00:43;100303.50;;;19.11;100.00
16120;BME280;12670;53.502;10.252;2023-07-29T03:03:46;100303.78;;;19.08;100.00
16120;BME280;12670;53.502;10.252;2023-07-29T03:06:49;100300.81;;;19.11;100.00
16120;BME280;12670;53.502;10.252;2023-07-29T03:09:52;100296.44;;;19.10;100.00
16120;BME280;12670;53.502;10.252;2023-07-29T03:12:56;100302.31;;;19.04;100.00
16120;BME280;12670;53.502;10.252;2023-07-29T03:16:04;100299.63;;;19.04;100.00
16120;BME280;12670;53.502;10.252;2023-07-29T03:19:07;100305.28;;;19.01;100.00
16120;BME280;12670;53.502;10.252;2023-07-29T03:22:11;100312.84;;;19.07;100.00
16120;BME280;12670;53.502;10.252;2023-07-29T03:25:14;100307.72;;;19.04;100.00
16120;BME280;12670;53.502;10.252;2023-07-29T03:28:18;100313.03;;;18.94;100.00
16120;BME280;12670;53.502;10.252;2023-07-29T03:31:20;100306.28;;;19.00;100.00
16120;BME280;12670;53.502;10.252;2023-07-29T03:34:23;100310.66;;;19.01;100.00
16120;BME280;12670;53.502;10.252;2023-07-29T03:37:26;100311.66;;;19.00;100.00
16120;BME280;12670;53.502;10.252;2023-07-29T03:40:28;100312.38;;;19.02;100.00
16120;BME280;12670;53.502;10.252;2023-07-29T03:43:32;100312.50;;;19.00;100.00
16120;BME280;12670;53.502;10.252;2023-07-29T03:46:35;100321.88;;;19.06;100.00
16120;BME280;12670;53.502;10.252;2023-07-29T03:49:38;100323.78;;;19.15;100.00
16120;BME280;12670;53.502;10.252;2023-07-29T03:52:41;100323.84;;;19.04;100.00
16120;BME280;12670;53.502;10.252;2023-07-29T03:55:44;100320.63;;;19.10;100.00
16120;BME280;12670;53.502;10.252;2023-07-29T03:58:48;100311.56;;;19.11;100.00
16120;BME280;12670;53.502;10.252;2023-07-29T04:01:51;100315.78;;;19.04;100.00
16120;BME280;12670;53.502;10.252;2023-07-29T04:04:54;100302.31;;;19.04;100.00
16120;BME280;12670;53.502;10.252;2023-07-29T04:07:56;100302.72;;;18.99;100.00
16120;BME280;12670;53.502;10.252;2023-07-29T04:10:59;100294.53;;;19.01;100.00
16120;BME280;12670;53.502;10.252;2023-07-29T04:14:03;100293.97;;;19.18;100.00
16120;BME280;12670;53.502;10.252;2023-07-29T04:17:07;100303.00;;;19.17;100.00
16120;BME280;12670;53.502;10.252;2023-07-29T04:20:10;100292.50;;;19.14;100.00
16120;BME280;12670;53.502;10.252;2023-07-29T04:23:13;100304.38;;;19.11;100.00
16120;BME280;12670;53.502;10.252;2023-07-29T04:26:16;100302.75;;;19.20;100.00
16120;BME280;12670;53.502;10.252;2023-07-29T04:29:20;100301.97;;;19.29;100.00
16120;BME280;12670;53.502;10.252;2023-07-29T04:32:24;100313.25;;;19.23;100.00
16120;BME280;12670;53.502;10.252;2023-07-29T04:35:27;100318.34;;;19.26;100.00
16120;BME280;12670;53.502;10.252;2023-07-29T04:38:31;100321.44;;;19.22;100.00
16120;BME280;12670;53.502;10.252;2023-07-29T04:41:34;100321.66;;;18.98;100.00
16120;BME280;12670;53.502;10.252;2023-07-29T04:44:38;100311.19;;;19.15;100.00
16120;BME280;12670;53.502;10.252;2023-07-29T04:47:43;100313.31;;;19.12;100.00
16120;BME280;12670;53.502;10.252;2023-07-29T04:50:46;100299.16;;;19.31;100.00
16120;BME280;12670;53.502;10.252;2023-07-29T04:53:48;100305.16;;;19.02;100.00
16120;BME280;12670;53.502;10.252;2023-07-29T04:56:51;100301.34;;;19.05;100.00
16120;BME280;12670;53.502;10.252;2023-07-29T04:59:55;100305.50;;;19.09;100.00
16120;BME280;12670;53.502;10.252;2023-07-29T05:02:58;100308.66;;;19.14;100.00
16120;BME280;12670;53.502;10.252;2023-07-29T05:06:01;100301.38;;;19.26;100.00
16120;BME280;12670;53.502;10.252;2023-07-29T05:09:13;100304.38;;;19.11;100.00
16120;BME280;12670;53.502;10.252;2023-07-29T05:12:15;100304.72;;;19.18;100.00
16120;BME280;12670;53.502;10.252;2023-07-29T05:15:19;100307.13;;;19.21;100.00
16120;BME280;12670;53.502;10.252;2023-07-29T05:18:22;100307.28;;;19.20;100.00
16120;BME280;12670;53.502;10.252;2023-07-29T05:21:25;100313.59;;;18.98;100.00
16120;BME280;12670;53.502;10.252;2023-07-29T05:24:27;100307.19;;;19.10;100.00
16120;BME280;12670;53.502;10.252;2023-07-29T05:27:30;100310.16;;;19.28;100.00
16120;BME280;12670;53.502;10.252;2023-07-29T05:30:34;100311.47;;;19.12;100.00
16120;BME280;12670;53.502;10.252;2023-07-29T05:33:38;100309.06;;;19.30;100.00
16120;BME280;12670;53.502;10.252;2023-07-29T05:36:41;100309.38;;;19.37;100.00
16120;BME280;12670;53.502;10.252;2023-07-29T05:39:44;100307.53;;;19.37;100.00
16120;BME280;12670;53.502;10.252;2023-07-29T05:42:46;100312.88;;;19.49;100.00
16120;BME280;12670;53.502;10.252;2023-07-29T05:45:50;100298.41;;;19.50;100.00
16120;BME280;12670;53.502;10.252;2023-07-29T05:48:53;100297.38;;;19.62;100.00
16120;BME280;12670;53.502;10.252;2023-07-29T05:51:56;100284.28;;;19.57;100.00
16120;BME280;12670;53.502;10.252;2023-07-29T05:54:58;100291.56;;;19.87;100.00
16120;BME280;12670;53.502;10.252;2023-07-29T05:58:01;100289.56;;;19.80;100.00
16120;BME280;12670;53.502;10.252;2023-07-29T06:01:05;100294.94;;;19.80;100.00
16120;BME280;12670;53.502;10.252;2023-07-29T06:04:08;100302.06;;;19.90;100.00
16120;BME280;12670;53.502;10.252;2023-07-29T06:07:11;100297.59;;;20.01;100.00
16120;BME280;12670;53.502;10.252;2023-07-29T06:10:15;100295.44;;;20.35;100.00
16120;BME280;12670;53.502;10.252;2023-07-29T06:13:19;100288.78;;;19.98;100.00
16120;BME280;12670;53.502;10.252;2023-07-29T06:16:23;100283.19;;;20.11;100.00
16120;BME280;12670;53.502;10.252;2023-07-29T06:19:26;100284.00;;;20.02;100.00
16120;BME280;12670;53.502;10.252;2023-07-29T06:22:29;100285.19;;;20.19;100.00
16120;BME280;12670;53.502;10.252;2023-07-29T06:25:31;100277.38;;;20.16;100.00
16120;BME280;12670;53.502;10.252;2023-07-29T06:28:34;100261.66;;;20.21;100.00
16120;BME280;12670;53.502;10.252;2023-07-29T06:31:38;100258.41;;;20.17;100.00
16120;BME280;12670;53.502;10.252;2023-07-29T06:34:41;100282.19;;;20.22;100.00
16120;BME280;12670;53.502;10.252;2023-07-29T06:37:43;100287.47;;;20.33;100.00
16120;BME280;12670;53.502;10.252;2023-07-29T06:40:46;100277.00;;;20.40;100.00
16120;BME280;12670;53.502;10.252;2023-07-29T06:43:49;100270.69;;;20.50;100.00
16120;BME280;12670;53.502;10.252;2023-07-29T06:46:53;100268.00;;;20.50;100.00
16120;BME280;12670;53.502;10.252;2023-07-29T06:49:55;100278.31;;;20.45;100.00
16120;BME280;12670;53.502;10.252;2023-07-29T06:52:58;100274.81;;;20.55;100.00
16120;BME280;12670;53.502;10.252;2023-07-29T06:56:01;100263.19;;;20.54;100.00
16120;BME280;12670;53.502;10.252;2023-07-29T06:59:03;100266.59;;;20.66;100.00
16120;BME280;12670;53.502;10.252;2023-07-29T07:02:07;100254.00;;;20.76;100.00
16120;BME280;12670;53.502;10.252;2023-07-29T07:05:10;100273.13;;;20.73;100.00
16120;BME280;12670;53.502;10.252;2023-07-29T07:08:13;100264.88;;;20.74;100.00
16120;BME280;12670;53.502;10.252;2023-07-29T07:11:15;100278.81;;;20.80;100.00
16120;BME280;12670;53.502;10.252;2023-07-29T07:14:18;100269.84;;;20.98;100.00
16120;BME280;12670;53.502;10.252;2023-07-29T07:17:22;100279.38;;;20.73;100.00
16120;BME280;12670;53.502;10.252;2023-07-29T07:20:25;100283.63;;;20.76;100.00
16120;BME280;12670;53.502;10.252;2023-07-29T07:23:27;100281.34;;;20.81;100.00
16120;BME280;12670;53.502;10.252;2023-07-29T07:26:30;100282.50;;;20.88;100.00
16120;BME280;12670;53.502;10.252;2023-07-29T07:29:33;100272.72;;;21.07;100.00
16120;BME280;12670;53.502;10.252;2023-07-29T07:32:37;100269.16;;;20.77;100.00
16120;BME280;12670;53.502;10.252;2023-07-29T07:35:40;100256.38;;;20.79;100.00
16120;BME280;12670;53.502;10.252;2023-07-29T07:38:43;100264.06;;;20.93;100.00
16120;BME280;12670;53.502;10.252;2023-07-29T07:41:46;100269.16;;;20.96;100.00
16120;BME280;12670;53.502;10.252;2023-07-29T07:44:49;100267.16;;;21.08;100.00
16120;BME280;12670;53.502;10.252;2023-07-29T07:47:53;100266.47;;;20.96;100.00
16120;BME280;12670;53.502;10.252;2023-07-29T07:50:56;100271.97;;;21.04;100.00
16120;BME280;12670;53.502;10.252;2023-07-29T07:53:58;100270.59;;;20.91;100.00
16120;BME280;12670;53.502;10.252;2023-07-29T07:57:01;100266.34;;;20.88;100.00
16120;BME280;12670;53.502;10.252;2023-07-29T08:00:05;100272.28;;;20.92;100.00
16120;BME280;12670;53.502;10.252;2023-07-29T08:03:09;100264.78;;;20.76;100.00
16120;BME280;12670;53.502;10.252;2023-07-29T08:06:12;100260.34;;;20.75;100.00
16120;BME280;12670;53.502;10.252;2023-07-29T08:09:15;100254.94;;;20.75;100.00
16120;BME280;12670;53.502;10.252;2023-07-29T08:12:17;100249.56;;;20.75;100.00
16120;BME280;12670;53.502;10.252;2023-07-29T08:15:20;100240.94;;;21.00;100.00
16120;BME280;12670;53.502;10.252;2023-07-29T08:18:24;100253.25;;;21.13;100.00
16120;BME280;12670;53.502;10.252;2023-07-29T08:21:27;100254.94;;;21.14;100.00
16120;BME280;12670;53.502;10.252;2023-07-29T08:24:30;100250.09;;;21.27;100.00
16120;BME280;12670;53.502;10.252;2023-07-29T08:27:33;100247.56;;;21.16;100.00
16120;BME280;12670;53.502;10.252;2023-07-29T08:30:36;100246.00;;;21.23;100.00
16120;BME280;12670;53.502;10.252;2023-07-29T08:33:40;100243.91;;;21.07;100.00
16120;BME280;12670;53.502;10.252;2023-07-29T08:36:42;100247.44;;;21.08;100.00
16120;BME280;12670;53.502;10.252;2023-07-29T08:39:45;100255.53;;;21.08;100.00
16120;BME280;12670;53.502;10.252;2023-07-29T08:42:48;100253.84;;;21.07;100.00
16120;BME280;12670;53.502;10.252;2023-07-29T08:45:52;100257.53;;;21.06;100.00
16120;BME280;12670;53.502;10.252;2023-07-29T08:48:56;100251.72;;;21.00;100.00
16120;BME280;12670;53.502;10.252;2023-07-29T08:52:00;100253.56;;;21.00;100.00
16120;BME280;12670;53.502;10.252;2023-07-29T08:55:04;100239.66;;;20.85;100.00
16120;BME280;12670;53.502;10.252;2023-07-29T08:58:07;100252.41;;;21.12;100.00
16120;BME280;12670;53.502;10.252;2023-07-29T09:01:10;100252.56;;;20.91;100.00
16120;BME280;12670;53.502;10.252;2023-07-29T09:04:14;100246.16;;;21.12;100.00
16120;BME280;12670;53.502;10.252;2023-07-29T09:07:17;100245.88;;;21.15;100.00
16120;BME280;12670;53.502;10.252;2023-07-29T09:10:21;100243.31;;;21.23;100.00
16120;BME280;12670;53.502;10.252;2023-07-29T09:13:24;100226.78;;;21.55;100.00
16120;BME280;12670;53.502;10.252;2023-07-29T09:16:27;100229.06;;;21.50;100.00
16120;BME280;12670;53.502;10.252;2023-07-29T09:19:34;100223.50;;;21.51;100.00
16120;BME280;12670;53.502;10.252;2023-07-29T09:22:36;100229.28;;;21.76;100.00
16120;BME280;12670;53.502;10.252;2023-07-29T09:25:40;100220.38;;;21.93;100.00
16120;BME280;12670;53.502;10.252;2023-07-29T09:28:43;100218.41;;;21.86;100.00
16120;BME280;12670;53.502;10.252;2023-07-29T09:31:46;100217.56;;;21.85;100.00
16120;BME280;12670;53.502;10.252;2023-07-29T09:34:50;100212.16;;;21.85;100.00
16120;BME280;12670;53.502;10.252;2023-07-29T09:37:53;100214.84;;;21.85;100.00
16120;BME280;12670;53.502;10.252;2023-07-29T09:40:56;100216.16;;;21.81;100.00
16120;BME280;12670;53.502;10.252;2023-07-29T09:44:00;100213.25;;;21.92;100.00
16120;BME280;12670;53.502;10.252;2023-07-29T09:47:04;100206.78;;;22.13;100.00
16120;BME280;12670;53.502;10.252;2023-07-29T09:50:09;100213.19;;;22.12;100.00
16120;BME280;12670;53.502;10.252;2023-07-29T09:53:12;100208.97;;;22.27;100.00
16120;BME280;12670;53.502;10.252;2023-07-29T09:56:15;100209.69;;;22.29;100.00
16120;BME280;12670;53.502;10.252;2023-07-29T09:59:19;100206.50;;;22.33;100.00
16120;BME280;12670;53.502;10.252;2023-07-29T10:02:21;100215.00;;;22.39;100.00
16120;BME280;12670;53.502;10.252;2023-07-29T10:05:28;100205.97;;;22.30;100.00
16120;BME280;12670;53.502;10.252;2023-07-29T10:08:32;100217.09;;;22.45;100.00
16120;BME280;12670;53.502;10.252;2023-07-29T10:11:37;100212.69;;;22.44;100.00
16120;BME280;12670;53.502;10.252;2023-07-29T10:14:40;100213.75;;;22.33;100.00
16120;BME280;12670;53.502;10.252;2023-07-29T10:17:45;100220.09;;;22.24;100.00
16120;BME280;12670;53.502;10.252;2023-07-29T10:20:52;100211.44;;;22.38;100.00
16120;BME280;12670;53.502;10.252;2023-07-29T10:24:00;100218.28;;;22.60;100.00
16120;BME280;12670;53.502;10.252;2023-07-29T10:27:04;100211.00;;;22.43;100.00
16120;BME280;12670;53.502;10.252;2023-07-29T10:30:11;100208.84;;;22.46;100.00
16120;BME280;12670;53.502;10.252;2023-07-29T10:33:14;100208.66;;;22.30;100.00
16120;BME280;12670;53.502;10.252;2023-07-29T10:36:19;100209.22;;;22.51;100.00
16120;BME280;12670;53.502;10.252;2023-07-29T10:39:24;100216.03;;;22.55;100.00
16120;BME280;12670;53.502;10.252;2023-07-29T10:42:27;100204.91;;;22.58;100.00
16120;BME280;12670;53.502;10.252;2023-07-29T10:45:36;100208.75;;;22.74;100.00
16120;BME280;12670;53.502;10.252;2023-07-29T10:48:41;100199.13;;;22.89;100.00
16120;BME280;12670;53.502;10.252;2023-07-29T10:51:45;100191.22;;;23.22;100.00
16120;BME280;12670;53.502;10.252;2023-07-29T10:54:52;100190.38;;;22.95;100.00
16120;BME280;12670;53.502;10.252;2023-07-29T10:58:07;100189.81;;;22.74;100.00
16120;BME280;12670;53.502;10.252;2023-07-29T11:01:13;100185.19;;;22.66;100.00
16120;BME280;12670;53.502;10.252;2023-07-29T11:04:25;100185.59;;;22.89;100.00
16120;BME280;12670;53.502;10.252;2023-07-29T11:07:30;100188.91;;;23.01;100.00
16120;BME280;12670;53.502;10.252;2023-07-29T11:10:42;100180.31;;;23.31;100.00
16120;BME280;12670;53.502;10.252;2023-07-29T11:13:45;100184.34;;;23.01;100.00
16120;BME280;12670;53.502;10.252;2023-07-29T11:16:48;100182.91;;;22.89;100.00
16120;BME280;12670;53.502;10.252;2023-07-29T11:19:52;100180.47;;;22.86;100.00
16120;BME280;12670;53.502;10.252;2023-07-29T11:22:59;100180.25;;;22.79;100.00
16120;BME280;12670;53.502;10.252;2023-07-29T11:26:02;100176.19;;;22.93;100.00
16120;BME280;12670;53.502;10.252;2023-07-29T11:29:05;100166.84;;;22.87;100.00
16120;BME280;12670;53.502;10.252;2023-07-29T11:32:09;100173.94;;;23.14;100.00
16120;BME280;12670;53.502;10.252;2023-07-29T11:35:13;100166.59;;;23.93;100.00
16120;BME280;12670;53.502;10.252;2023-07-29T11:38:19;100175.41;;;24.45;100.00
16120;BME280;12670;53.502;10.252;2023-07-29T11:41:22;100166.09;;;25.21;100.00
16120;BME280;12670;53.502;10.252;2023-07-29T11:44:24;100168.38;;;25.49;100.00
16120;BME280;12670;53.502;10.252;2023-07-29T11:47:28;100155.78;;;25.64;100.00
16120;BME280;12670;53.502;10.252;2023-07-29T11:50:32;100163.31;;;25.93;96.29
16120;BME280;12670;53.502;10.252;2023-07-29T11:53:36;100160.41;;;26.26;90.62
16120;BME280;12670;53.502;10.252;2023-07-29T11:56:39;100164.78;;;26.04;91.60
16120;BME280;12670;53.502;10.252;2023-07-29T11:59:42;100166.22;;;25.84;90.51
16120;BME280;12670;53.502;10.252;2023-07-29T12:02:46;100172.13;;;25.48;93.03
16120;BME280;12670;53.502;10.252;2023-07-29T12:05:50;100171.81;;;25.35;97.05
16120;BME280;12670;53.502;10.252;2023-07-29T12:08:54;100166.09;;;26.16;100.00
16120;BME280;12670;53.502;10.252;2023-07-29T12:11:57;100166.25;;;26.38;92.78
16120;BME280;12670;53.502;10.252;2023-07-29T12:15:01;100167.25;;;25.83;91.50
16120;BME280;12670;53.502;10.252;2023-07-29T12:18:04;100171.72;;;25.75;96.32
16120;BME280;12670;53.502;10.252;2023-07-29T12:21:06;100175.88;;;25.31;97.49
16120;BME280;12670;53.502;10.252;2023-07-29T12:24:12;100180.66;;;24.80;98.93
16120;BME280;12670;53.502;10.252;2023-07-29T12:27:15;100180.66;;;24.71;100.00
16120;BME280;12670;53.502;10.252;2023-07-29T12:30:20;100183.00;;;24.50;100.00
16120;BME280;12670;53.502;10.252;2023-07-29T12:33:30;100168.75;;;25.38;99.30
16120;BME280;12670;53.502;10.252;2023-07-29T12:36:43;100169.81;;;25.68;93.34
16120;BME280;12670;53.502;10.252;2023-07-29T12:39:50;100172.94;;;26.04;95.82
16120;BME280;12670;53.502;10.252;2023-07-29T12:42:53;100167.41;;;26.74;89.98
16120;BME280;12670;53.502;10.252;2023-07-29T12:45:57;100168.81;;;27.08;79.54
16120;BME280;12670;53.502;10.252;2023-07-29T12:48:59;100160.88;;;27.51;81.86
16120;BME280;12670;53.502;10.252;2023-07-29T12:52:02;100163.13;;;27.32;76.75
16120;BME280;12670;53.502;10.252;2023-07-29T12:55:07;100160.97;;;27.57;79.52
16120;BME280;12670;53.502;10.252;2023-07-29T12:58:15;100152.31;;;27.69;75.93
16120;BME280;12670;53.502;10.252;2023-07-29T13:01:19;100161.72;;;26.99;71.69
16120;BME280;12670;53.502;10.252;2023-07-29T13:04:23;100162.56;;;26.30;76.81
16120;BME280;12670;53.502;10.252;2023-07-29T13:07:26;100166.59;;;26.43;82.36
16120;BME280;12670;53.502;10.252;2023-07-29T13:10:30;100166.94;;;26.17;77.68
16120;BME280;12670;53.502;10.252;2023-07-29T13:13:32;100166.16;;;26.00;80.82
16120;BME280;12670;53.502;10.252;2023-07-29T13:16:35;100160.84;;;26.07;79.68
16120;BME280;12670;53.502;10.252;2023-07-29T13:19:38;100167.28;;;26.37;77.89
16120;BME280;12670;53.502;10.252;2023-07-29T13:22:41;100168.34;;;26.81;76.97
16120;BME280;12670;53.502;10.252;2023-07-29T13:25:45;100164.41;;;27.07;72.66
16120;BME280;12670;53.502;10.252;2023-07-29T13:28:48;100163.94;;;26.80;73.85
16120;BME280;12670;53.502;10.252;2023-07-29T13:31:50;100173.94;;;27.03;77.63
16120;BME280;12670;53.502;10.252;2023-07-29T13:34:53;100161.31;;;27.10;75.28
16120;BME280;12670;53.502;10.252;2023-07-29T13:37:56;100159.63;;;27.24;74.29
16120;BME280;12670;53.502;10.252;2023-07-29T13:41:00;100167.97;;;26.39;72.72
16120;BME280;12670;53.502;10.252;2023-07-29T13:44:03;100166.28;;;26.07;74.23
16120;BME280;12670;53.502;10.252;2023-07-29T13:47:05;100162.50;;;25.85;75.88
16120;BME280;12670;53.502;10.252;2023-07-29T13:50:08;100164.34;;;25.45;76.32
16120;BME280;12670;53.502;10.252;2023-07-29T13:53:11;100161.09;;;25.41;82.52
16120;BME280;12670;53.502;10.252;2023-07-29T13:56:15;100164.56;;;25.66;79.15
16120;BME280;12670;53.502;10.252;2023-07-29T13:59:18;100163.69;;;25.82;75.25
16120;BME280;12670;53.502;10.252;2023-07-29T14:02:20;100170.16;;;26.12;75.57
16120;BME280;12670;53.502;10.252;2023-07-29T14:05:23;100183.81;;;26.04;74.54
16120;BME280;12670;53.502;10.252;2023-07-29T14:08:26;100174.13;;;25.62;74.91
16120;BME280;12670;53.502;10.252;2023-07-29T14:11:30;100175.88;;;25.31;76.92
16120;BME280;12670;53.502;10.252;2023-07-29T14:14:33;100185.94;;;25.14;80.44
16120;BME280;12670;53.502;10.252;2023-07-29T14:17:35;100182.38;;;25.05;81.91
16120;BME280;12670;53.502;10.252;2023-07-29T14:20:38;100174.19;;;24.97;82.17
16120;BME280;12670;53.502;10.252;2023-07-29T14:23:41;100181.50;;;24.96;85.58
16120;BME280;12670;53.502;10.252;2023-07-29T14:26:45;100170.84;;;25.11;85.11
16120;BME280;12670;53.502;10.252;2023-07-29T14:29:47;100181.63;;;25.44;84.00
16120;BME280;12670;53.502;10.252;2023-07-29T14:32:50;100174.66;;;25.97;77.99
16120;BME280;12670;53.502;10.252;2023-07-29T14:35:53;100169.66;;;25.86;79.23
16120;BME280;12670;53.502;10.252;2023-07-29T14:38:55;100174.00;;;25.95;76.19
16120;BME280;12670;53.502;10.252;2023-07-29T14:41:59;100163.66;;;25.90;77.60
16120;BME280;12670;53.502;10.252;2023-07-29T14:45:02;100161.66;;;25.84;71.82
16120;BME280;12670;53.502;10.252;2023-07-29T14:48:05;100167.63;;;25.71;75.45
16120;BME280;12670;53.502;10.252;2023-07-29T14:51:09;100162.56;;;25.68;73.07
16120;BME280;12670;53.502;10.252;2023-07-29T14:54:12;100158.56;;;25.32;75.44
16120;BME280;12670;53.502;10.252;2023-07-29T14:57:17;100166.41;;;25.18;77.54
16120;BME280;12670;53.502;10.252;2023-07-29T15:00:19;100162.81;;;25.34;74.86
16120;BME280;12670;53.502;10.252;2023-07-29T15:03:23;100167.94;;;25.13;76.69
16120;BME280;12670;53.502;10.252;2023-07-29T15:06:25;100161.66;;;25.04;75.81
16120;BME280;12670;53.502;10.252;2023-07-29T15:09:29;100172.88;;;24.93;77.78
16120;BME280;12670;53.502;10.252;2023-07-29T15:12:33;100164.91;;;24.75;75.94
16120;BME280;12670;53.502;10.252;2023-07-29T15:15:36;100164.06;;;24.75;79.70
16120;BME280;12670;53.502;10.252;2023-07-29T15:18:42;100165.22;;;24.72;74.74
16120;BME280;12670;53.502;10.252;2023-07-29T15:21:45;100163.03;;;25.00;70.55
16120;BME280;12670;53.502;10.252;2023-07-29T15:24:48;100169.81;;;24.88;73.42
16120;BME280;12670;53.502;10.252;2023-07-29T15:27:52;100165.91;;;24.82;74.30
16120;BME280;12670;53.502;10.252;2023-07-29T15:30:55;100166.94;;;24.81;76.34
16120;BME280;12670;53.502;10.252;2023-07-29T15:33:57;100171.34;;;24.66;79.50
16120;BME280;12670;53.502;10.252;2023-07-29T15:37:01;100169.31;;;24.76;75.88
16120;BME280;12670;53.502;10.252;2023-07-29T15:40:05;100170.50;;;24.57;73.90